createdAt,value
2019-02-21T00:01:24.273Z,24.23
2019-02-21T00:03:53.420Z,24.43
2019-02-21T00:06:22.521Z,23.67
2019-02-21T00:08:51.689Z,19.53
2019-02-21T00:11:20.791Z,20.83
2019-02-21T00:13:49.941Z,22.83
2019-02-21T00:16:19.086Z,25.37
2019-02-21T00:18:48.235Z,20.00
2019-02-21T00:21:17.436Z,21.53
2019-02-21T00:23:46.545Z,19.97
2019-02-21T00:26:15.859Z,19.67
2019-02-21T00:28:45.027Z,18.90
2019-02-21T00:31:14.203Z,19.77
2019-02-21T00:33:43.701Z,17.87
2019-02-21T00:36:12.859Z,20.40
2019-02-21T00:38:41.953Z,20.53
2019-02-21T00:41:11.130Z,17.90
2019-02-21T00:43:41.097Z,23.63
2019-02-21T00:46:10.188Z,17.37
2019-02-21T00:48:39.285Z,23.00
2019-02-21T00:51:08.449Z,19.27
2019-02-21T00:53:37.616Z,22.40
2019-02-21T00:56:06.786Z,21.10
2019-02-21T00:58:35.940Z,23.33
2019-02-21T01:01:05.543Z,20.07
2019-02-21T01:03:34.697Z,22.53
2019-02-21T01:06:03.810Z,22.43
2019-02-21T01:08:32.946Z,20.10
2019-02-21T01:11:02.104Z,18.60
2019-02-21T01:13:31.237Z,21.17
2019-02-21T01:16:00.380Z,18.23
2019-02-21T01:18:29.531Z,20.80
2019-02-21T01:20:58.685Z,19.37
2019-02-21T01:23:28.061Z,19.30
2019-02-21T01:25:57.223Z,21.03
2019-02-21T01:28:26.357Z,20.53
2019-02-21T01:30:57.193Z,19.40
2019-02-21T01:33:26.355Z,20.17
2019-02-21T01:35:55.512Z,22.07
2019-02-21T01:38:24.613Z,22.93
2019-02-21T01:40:54.145Z,21.70
2019-02-21T01:43:23.353Z,21.60
2019-02-21T01:45:52.499Z,23.53
2019-02-21T01:48:22.001Z,21.40
2019-02-21T01:50:51.175Z,21.37
2019-02-21T01:53:20.321Z,19.97
2019-02-21T01:55:49.423Z,21.50
2019-02-21T01:58:18.739Z,22.37
2019-02-21T02:00:47.875Z,19.70
2019-02-21T02:03:17.013Z,21.07
2019-02-21T02:05:46.122Z,20.33
2019-02-21T02:08:15.281Z,23.53
2019-02-21T02:10:44.715Z,24.97
2019-02-21T02:13:24.218Z,23.73
2019-02-21T02:15:44.711Z,19.70
2019-02-21T02:18:14.177Z,22.60
2019-02-21T02:20:43.300Z,22.70
2019-02-21T02:23:12.418Z,23.83
2019-02-21T02:25:41.912Z,21.37
2019-02-21T02:28:11.016Z,23.30
2019-02-21T02:30:40.180Z,21.77
2019-02-21T02:33:09.368Z,21.17
2019-02-21T02:35:38.536Z,22.23
2019-02-21T02:38:07.631Z,19.70
2019-02-21T02:40:36.781Z,23.37
2019-02-21T02:43:05.895Z,19.00
2019-02-21T02:45:35.031Z,21.50
2019-02-21T02:48:04.174Z,22.27
2019-02-21T02:50:33.675Z,25.20
2019-02-21T02:53:02.826Z,23.83
2019-02-21T02:55:31.961Z,22.97
2019-02-21T02:58:01.115Z,23.50
2019-02-21T03:00:30.255Z,25.23
2019-02-21T03:02:59.443Z,25.83
2019-02-21T03:05:28.608Z,24.33
2019-02-21T03:07:57.698Z,23.97
2019-02-21T03:10:26.850Z,24.20
2019-02-21T03:12:55.979Z,24.70
2019-02-21T03:15:25.120Z,28.73
2019-02-21T03:17:54.218Z,25.70
2019-02-21T03:20:23.374Z,22.03
2019-02-21T03:22:52.495Z,25.27
2019-02-21T03:25:21.658Z,23.70
2019-02-21T03:27:50.775Z,24.00
2019-02-21T03:30:19.912Z,25.80
2019-02-21T03:32:49.024Z,26.47
2019-02-21T03:35:18.162Z,25.43
2019-02-21T03:37:47.266Z,25.53
2019-02-21T03:40:16.444Z,24.87
2019-02-21T03:42:45.552Z,26.47
2019-02-21T03:45:14.797Z,24.57
2019-02-21T03:47:43.947Z,27.30
2019-02-21T03:50:13.625Z,24.70
2019-02-21T03:52:42.766Z,24.77
2019-02-21T03:55:11.897Z,28.83
2019-02-21T03:57:41.049Z,25.03
2019-02-21T04:00:10.289Z,23.57
2019-02-21T04:02:39.513Z,25.47
2019-02-21T04:05:08.851Z,27.90
2019-02-21T04:07:38.010Z,23.53
2019-02-21T04:10:07.424Z,26.30
2019-02-21T04:12:36.568Z,26.20
2019-02-21T04:15:06.122Z,24.40
2019-02-21T04:17:35.318Z,26.90
2019-02-21T04:20:04.609Z,27.63
2019-02-21T04:22:33.737Z,23.63
2019-02-21T04:25:02.915Z,25.63
2019-02-21T04:27:32.099Z,22.90
2019-02-21T04:30:01.223Z,26.23
2019-02-21T04:32:30.364Z,27.23
2019-02-21T04:34:59.478Z,27.23
2019-02-21T04:37:28.627Z,24.90
2019-02-21T04:39:57.843Z,26.87
2019-02-21T04:42:26.999Z,26.80
2019-02-21T04:44:56.116Z,26.70
2019-02-21T04:47:25.620Z,25.37
2019-02-21T04:49:54.735Z,28.13
2019-02-21T04:52:23.967Z,27.53
2019-02-21T04:54:53.643Z,22.33
2019-02-21T04:57:22.818Z,23.93
2019-02-21T04:59:51.928Z,24.33
2019-02-21T05:02:29.260Z,25.93
2019-02-21T05:04:51.906Z,28.67
2019-02-21T05:07:21.048Z,44.53
2019-02-21T05:09:58.060Z,31.43
2019-02-21T05:12:21.413Z,31.90
2019-02-21T05:14:50.628Z,27.03
2019-02-21T05:17:19.776Z,27.90
2019-02-21T05:19:48.887Z,26.97
2019-02-21T05:22:18.270Z,26.33
2019-02-21T05:24:47.386Z,21.90
2019-02-21T05:27:20.271Z,26.97
2019-02-21T05:29:49.762Z,23.03
2019-02-21T05:32:41.198Z,25.47
2019-02-21T05:35:31.128Z,24.00
2019-02-21T05:38:09.167Z,24.07
2019-02-21T05:40:48.766Z,25.73
2019-02-21T05:43:37.362Z,22.77
2019-02-21T05:46:37.940Z,24.87
2019-02-21T05:49:22.185Z,25.67
2019-02-21T05:52:05.715Z,26.60
2019-02-21T05:54:53.487Z,27.60
2019-02-21T05:57:40.431Z,27.23
2019-02-21T06:00:36.886Z,26.20
2019-02-21T06:03:24.587Z,27.37
2019-02-21T06:06:18.499Z,24.77
2019-02-21T06:09:00.265Z,27.23
2019-02-21T06:11:47.075Z,23.73
2019-02-21T06:14:38.302Z,26.80
2019-02-21T06:17:24.358Z,27.80
2019-02-21T06:19:59.707Z,26.47
2019-02-21T06:22:41.060Z,30.70
2019-02-21T06:25:30.605Z,28.90
2019-02-21T06:28:05.254Z,34.70
2019-02-21T06:30:44.218Z,28.87
2019-02-21T06:33:13.378Z,28.13
2019-02-21T06:35:43.014Z,28.07
2019-02-21T06:38:12.143Z,29.30
2019-02-21T06:40:41.242Z,26.33
2019-02-21T06:43:10.667Z,28.70
2019-02-21T06:45:39.831Z,26.67
2019-02-21T06:48:09.401Z,25.33
2019-02-21T06:50:38.553Z,26.47
2019-02-21T06:53:08.141Z,28.37
2019-02-21T06:55:37.408Z,63.73
2019-02-21T06:58:06.548Z,31.07
2019-02-21T07:00:35.709Z,30.57
2019-02-21T07:03:15.109Z,28.47
2019-02-21T07:05:37.004Z,31.83
2019-02-21T07:08:08.741Z,29.63
2019-02-21T07:10:37.378Z,27.83
2019-02-21T07:13:06.507Z,27.40
2019-02-21T07:15:35.739Z,30.63
2019-02-21T07:18:04.914Z,26.63
2019-02-21T07:20:34.037Z,26.97
2019-02-21T07:23:03.190Z,25.53
2019-02-21T07:25:39.452Z,29.00
2019-02-21T07:28:11.650Z,26.10
2019-02-21T07:30:39.674Z,27.87
2019-02-21T07:33:08.850Z,28.60
2019-02-21T07:35:38.630Z,27.47
2019-02-21T07:38:07.759Z,28.73
2019-02-21T07:40:36.875Z,29.37
2019-02-21T07:43:06.021Z,29.13
2019-02-21T07:45:36.304Z,32.40
2019-02-21T07:48:05.745Z,31.20
2019-02-21T07:50:35.005Z,29.17
2019-02-21T07:53:04.448Z,31.77
2019-02-21T07:55:33.580Z,28.10
2019-02-21T07:58:03.979Z,42.10
2019-02-21T08:00:33.344Z,35.10
2019-02-21T08:03:02.483Z,31.20
2019-02-21T08:05:31.992Z,30.57
2019-02-21T08:08:01.105Z,27.67
2019-02-21T08:10:33.507Z,28.47
2019-02-21T08:13:01.167Z,42.37
2019-02-21T08:15:30.490Z,29.77
2019-02-21T08:17:59.604Z,29.77
2019-02-21T08:20:33.990Z,28.33
2019-02-21T08:22:59.628Z,30.73
2019-02-21T08:25:28.877Z,29.00
2019-02-21T08:27:57.998Z,30.27
2019-02-21T08:30:29.169Z,32.80
2019-02-21T08:33:25.913Z,30.57
2019-02-21T08:35:57.732Z,31.20
2019-02-21T08:38:25.920Z,28.50
2019-02-21T08:40:57.067Z,30.40
2019-02-21T08:43:25.949Z,30.40
2019-02-21T08:45:57.448Z,30.97
2019-02-21T08:48:25.917Z,29.67
2019-02-21T08:50:55.101Z,32.10
2019-02-21T08:53:24.215Z,32.13
2019-02-21T08:55:55.889Z,29.40
2019-02-21T08:58:24.131Z,31.80
2019-02-21T09:00:54.470Z,31.03
2019-02-21T09:03:23.732Z,31.70
2019-02-21T09:05:52.873Z,30.70
2019-02-21T09:08:32.706Z,29.27
2019-02-21T09:10:52.846Z,31.60
2019-02-21T09:13:23.910Z,31.93
2019-02-21T09:15:52.814Z,31.63
2019-02-21T09:18:21.928Z,31.03
2019-02-21T09:20:50.996Z,28.80
2019-02-21T09:23:20.149Z,31.67
2019-02-21T09:25:49.688Z,30.03
2019-02-21T09:28:18.900Z,26.73
2019-02-21T09:30:47.981Z,29.03
2019-02-21T09:33:18.997Z,30.00
2019-02-21T09:35:47.953Z,27.40
2019-02-21T09:38:17.428Z,31.77
2019-02-21T09:40:46.554Z,30.70
2019-02-21T09:43:15.656Z,28.27
2019-02-21T09:45:44.782Z,29.17
2019-02-21T09:48:13.886Z,30.00
2019-02-21T09:50:43.053Z,30.10
2019-02-21T09:53:12.163Z,26.80
2019-02-21T09:55:41.288Z,30.43
2019-02-21T09:58:10.841Z,31.77
2019-02-21T10:00:39.980Z,45.23
2019-02-21T10:03:09.084Z,27.50
2019-02-21T10:05:38.221Z,27.83
2019-02-21T10:08:07.324Z,30.73
2019-02-21T10:10:36.567Z,28.73
2019-02-21T10:13:05.643Z,31.20
2019-02-21T10:15:34.813Z,29.27
2019-02-21T10:18:03.897Z,28.23
2019-02-21T10:20:33.052Z,27.10
2019-02-21T10:23:02.152Z,27.87
2019-02-21T10:25:31.401Z,30.07
2019-02-21T10:28:00.611Z,29.43
2019-02-21T10:30:29.741Z,29.37
2019-02-21T10:32:58.862Z,29.07
2019-02-21T10:35:27.991Z,29.03
2019-02-21T10:37:57.089Z,26.53
2019-02-21T10:40:26.198Z,29.37
2019-02-21T10:42:55.342Z,26.77
2019-02-21T10:45:24.899Z,26.50
2019-02-21T10:47:54.051Z,24.13
2019-02-21T10:50:23.311Z,23.63
2019-02-21T10:52:52.434Z,22.63
2019-02-21T10:55:21.539Z,23.13
2019-02-21T10:57:50.679Z,21.63
2019-02-21T11:00:22.337Z,23.83
2019-02-21T11:02:51.451Z,21.40
2019-02-21T11:05:20.549Z,20.30
2019-02-21T11:07:49.909Z,20.40
2019-02-21T11:10:22.151Z,20.53
2019-02-21T11:12:51.327Z,21.00
2019-02-21T11:15:21.170Z,18.67
2019-02-21T11:17:50.499Z,20.70
2019-02-21T11:20:19.602Z,18.83
2019-02-21T11:22:48.753Z,18.50
2019-02-21T11:25:17.884Z,21.57
2019-02-21T11:27:47.076Z,20.27
2019-02-21T11:30:17.692Z,20.93
2019-02-21T11:32:46.880Z,21.27
2019-02-21T11:35:15.973Z,21.83
2019-02-21T11:37:47.096Z,21.57
2019-02-21T11:40:16.906Z,26.17
2019-02-21T11:42:46.632Z,21.77
2019-02-21T11:45:16.556Z,21.23
2019-02-21T11:47:45.689Z,20.97
2019-02-21T11:50:16.178Z,23.53
2019-02-21T11:52:45.635Z,20.67
2019-02-21T11:55:17.745Z,20.03
2019-02-21T11:57:46.945Z,22.60
2019-02-21T12:00:39.149Z,20.50
2019-02-21T12:03:08.298Z,21.47
2019-02-21T12:05:37.402Z,19.73
2019-02-21T12:08:06.525Z,23.33
2019-02-21T12:10:35.655Z,28.33
2019-02-21T12:13:05.094Z,93.90
2019-02-21T12:15:34.395Z,60.03
2019-02-21T12:18:03.570Z,19.53
2019-02-21T12:20:32.664Z,23.30
2019-02-21T12:23:01.783Z,61.60
2019-02-21T12:25:31.289Z,20.83
2019-02-21T12:28:00.414Z,59.20
2019-02-21T12:30:29.611Z,21.53
2019-02-21T12:32:58.741Z,26.97
2019-02-21T12:35:29.805Z,22.77
2019-02-21T12:37:59.036Z,20.73
2019-02-21T12:40:28.145Z,23.90
2019-02-21T12:42:57.467Z,25.07
2019-02-21T12:45:26.573Z,41.47
2019-02-21T12:47:55.705Z,43.63
2019-02-21T12:50:24.803Z,22.90
2019-02-21T12:52:54.055Z,22.80
2019-02-21T12:55:29.353Z,22.37
2019-02-21T12:57:54.056Z,23.17
2019-02-21T13:00:23.452Z,35.50
2019-02-21T13:02:52.569Z,22.80
2019-02-21T13:05:22.071Z,24.60
2019-02-21T13:07:51.195Z,25.03
2019-02-21T13:10:22.969Z,21.17
2019-02-21T13:12:52.213Z,24.30
2019-02-21T13:15:24.923Z,21.50
2019-02-21T13:17:54.012Z,23.93
2019-02-21T13:20:23.237Z,25.57
2019-02-21T13:22:52.976Z,24.73
2019-02-21T13:25:22.073Z,23.20
2019-02-21T13:27:51.216Z,23.33
2019-02-21T13:30:20.323Z,21.97
2019-02-21T13:32:49.495Z,21.57
2019-02-21T13:35:18.613Z,22.70
2019-02-21T13:37:48.824Z,20.07
2019-02-21T13:40:20.937Z,20.40
2019-02-21T13:42:49.420Z,24.07
2019-02-21T13:45:18.865Z,20.77
2019-02-21T13:47:48.003Z,21.80
2019-02-21T13:50:17.638Z,22.27
2019-02-21T13:52:47.146Z,21.47
2019-02-21T13:55:16.583Z,22.23
2019-02-21T13:57:45.741Z,24.70
2019-02-21T14:00:17.150Z,24.33
2019-02-21T14:02:46.839Z,23.90
2019-02-21T14:05:16.005Z,22.80
2019-02-21T14:07:45.337Z,24.10
2019-02-21T14:10:15.184Z,23.07
2019-02-21T14:12:44.339Z,22.80
2019-02-21T14:15:16.010Z,25.20
2019-02-21T14:17:46.681Z,24.27
2019-02-21T14:20:16.544Z,25.07
2019-02-21T14:22:45.713Z,23.97
2019-02-21T14:25:15.080Z,23.97
2019-02-21T14:27:44.257Z,24.93
2019-02-21T14:30:15.616Z,23.70
2019-02-21T14:32:45.961Z,19.83
2019-02-21T14:35:16.025Z,20.53
2019-02-21T14:37:45.147Z,20.27
2019-02-21T14:40:14.574Z,22.23
2019-02-21T14:42:45.114Z,20.23
2019-02-21T14:45:16.186Z,21.60
2019-02-21T14:47:45.333Z,19.13
2019-02-21T14:50:16.110Z,18.87
2019-02-21T14:52:45.556Z,19.33
2019-02-21T14:55:15.283Z,21.13
2019-02-21T14:57:44.409Z,21.50
2019-02-21T15:00:19.816Z,16.50
2019-02-21T15:02:48.953Z,17.27
2019-02-21T15:05:19.143Z,18.10
2019-02-21T15:07:48.821Z,17.87
2019-02-21T15:10:18.508Z,18.87
2019-02-21T15:12:48.373Z,19.87
2019-02-21T15:15:18.258Z,28.77
2019-02-21T15:17:47.773Z,20.33
2019-02-21T15:20:17.378Z,20.60
2019-02-21T15:22:46.905Z,21.03
2019-02-21T15:25:16.045Z,22.03
2019-02-21T15:27:45.138Z,30.80
2019-02-21T15:30:16.343Z,23.53
2019-02-21T15:32:45.436Z,24.13
2019-02-21T15:35:14.896Z,23.23
2019-02-21T15:37:45.207Z,24.33
2019-02-21T15:40:14.678Z,24.43
2019-02-21T15:42:43.870Z,24.13
2019-02-21T15:45:23.016Z,22.43
2019-02-21T15:47:45.890Z,24.17
2019-02-21T15:50:15.181Z,29.67
2019-02-21T15:52:44.647Z,26.03
2019-02-21T15:55:14.733Z,30.43
2019-02-21T15:57:43.869Z,24.93
2019-02-21T16:00:15.182Z,23.70
2019-02-21T16:02:44.271Z,25.07
2019-02-21T16:05:13.797Z,24.83
2019-02-21T16:07:42.914Z,24.73
2019-02-21T16:10:14.293Z,24.40
2019-02-21T16:12:43.886Z,24.00
2019-02-21T16:15:16.165Z,22.27
2019-02-21T16:17:44.489Z,22.47
2019-02-21T16:20:14.478Z,21.93
2019-02-21T16:22:44.157Z,22.03
2019-02-21T16:25:15.476Z,22.77
2019-02-21T16:27:44.574Z,20.87
2019-02-21T16:30:14.267Z,21.20
2019-02-21T16:32:43.522Z,22.40
2019-02-21T16:35:12.779Z,20.43
2019-02-21T16:37:42.120Z,21.60
2019-02-21T16:40:12.406Z,22.73
2019-02-21T16:42:41.633Z,21.20
2019-02-21T16:45:12.029Z,23.90
2019-02-21T16:47:41.129Z,20.53
2019-02-21T16:50:11.160Z,22.63
2019-02-21T16:52:40.300Z,22.27
2019-02-21T16:55:11.480Z,22.40
2019-02-21T16:57:40.617Z,22.63
2019-02-21T17:00:11.205Z,23.50
2019-02-21T17:02:40.312Z,25.50
2019-02-21T17:05:09.859Z,23.80
2019-02-21T17:07:38.968Z,23.83
2019-02-21T17:10:08.611Z,25.33
2019-02-21T17:12:37.722Z,25.63
2019-02-21T17:15:08.131Z,27.57
2019-02-21T17:17:37.532Z,26.20
2019-02-21T17:20:08.244Z,24.77
2019-02-21T17:22:37.390Z,44.33
2019-02-21T17:25:06.951Z,28.77
2019-02-21T17:27:36.101Z,32.90
2019-02-21T17:30:05.750Z,29.17
2019-02-21T17:32:34.862Z,30.83
2019-02-21T17:35:04.452Z,29.47
2019-02-21T17:37:33.562Z,29.27
2019-02-21T17:40:02.775Z,29.10
2019-02-21T17:42:31.926Z,29.83
2019-02-21T17:45:03.301Z,29.50
2019-02-21T17:47:36.142Z,29.30
2019-02-21T17:50:06.057Z,30.63
2019-02-21T17:52:36.107Z,28.67
2019-02-21T17:55:05.655Z,29.07
2019-02-21T17:57:36.931Z,30.63
2019-02-21T18:00:07.922Z,29.03
2019-02-21T18:02:37.490Z,31.23
2019-02-21T18:05:06.926Z,29.37
2019-02-21T18:07:36.798Z,32.87
2019-02-21T18:10:07.739Z,31.17
2019-02-21T18:12:36.978Z,30.37
2019-02-21T18:15:06.384Z,27.63
2019-02-21T18:17:35.516Z,29.67
2019-02-21T18:20:05.066Z,31.03
2019-02-21T18:22:34.167Z,30.40
2019-02-21T18:25:03.824Z,27.73
2019-02-21T18:27:34.683Z,31.73
2019-02-21T18:30:04.020Z,30.03
2019-02-21T18:32:33.119Z,31.07
2019-02-21T18:35:02.307Z,30.57
2019-02-21T18:37:31.401Z,30.27
2019-02-21T18:40:00.548Z,29.63
2019-02-21T18:42:29.665Z,28.57
2019-02-21T18:44:58.756Z,30.67
2019-02-21T18:47:28.199Z,33.27
2019-02-21T18:49:57.431Z,32.63
2019-02-21T18:52:26.585Z,29.13
2019-02-21T18:54:55.728Z,34.73
2019-02-21T18:57:25.128Z,31.97
2019-02-21T18:59:54.439Z,33.30
2019-02-21T19:02:23.638Z,34.17
2019-02-21T19:04:52.907Z,33.77
2019-02-21T19:07:22.102Z,30.67
2019-02-21T19:09:51.275Z,31.50
2019-02-21T19:12:20.445Z,32.70
2019-02-21T19:14:50.155Z,33.13
2019-02-21T19:17:19.242Z,33.97
2019-02-21T19:19:48.367Z,34.23
2019-02-21T19:22:18.102Z,35.73
2019-02-21T19:24:47.343Z,33.83
2019-02-21T19:27:17.255Z,40.93
2019-02-21T19:29:46.731Z,39.57
2019-02-21T19:32:15.956Z,41.87
2019-02-21T19:34:45.131Z,37.57
2019-02-21T19:37:14.451Z,49.97
2019-02-21T19:39:44.277Z,38.03
2019-02-21T19:42:13.490Z,37.27
2019-02-21T19:44:42.678Z,36.53
2019-02-21T19:47:11.884Z,38.47
2019-02-21T19:49:41.468Z,38.20
2019-02-21T19:52:10.660Z,42.60
2019-02-21T19:54:39.855Z,40.60
2019-02-21T19:57:09.010Z,37.87
2019-02-21T19:59:38.373Z,34.77
2019-02-21T20:02:08.169Z,38.03
2019-02-21T20:04:37.318Z,39.80
2019-02-21T20:07:06.562Z,41.27
2019-02-21T20:09:35.728Z,39.40
2019-02-21T20:12:05.033Z,38.70
2019-02-21T20:14:34.187Z,40.53
2019-02-21T20:17:03.334Z,43.23
2019-02-21T20:19:32.659Z,42.97
2019-02-21T20:22:01.754Z,40.60
2019-02-21T20:24:30.898Z,42.43
2019-02-21T20:27:00.508Z,41.33
2019-02-21T20:29:29.696Z,42.10
2019-02-21T20:31:59.074Z,41.50
2019-02-21T20:34:28.295Z,42.60
2019-02-21T20:36:57.556Z,41.13
2019-02-21T20:39:26.931Z,43.00
2019-02-21T20:41:56.318Z,42.60
2019-02-21T20:44:25.438Z,43.53
2019-02-21T20:46:54.571Z,44.93
2019-02-21T20:49:23.880Z,43.13
2019-02-21T20:51:53.063Z,44.30
2019-02-21T20:54:22.336Z,43.43
2019-02-21T20:56:51.612Z,45.20
2019-02-21T20:59:20.722Z,47.13
2019-02-21T21:01:50.236Z,45.63
2019-02-21T21:04:19.356Z,43.97
2019-02-21T21:06:48.522Z,50.30
2019-02-21T21:09:17.778Z,46.53
2019-02-21T21:11:46.921Z,50.07
2019-02-21T21:14:16.007Z,50.20
2019-02-21T21:16:46.252Z,54.20
2019-02-21T21:19:15.423Z,50.20
2019-02-21T21:21:44.739Z,51.07
2019-02-21T21:24:14.334Z,50.47
2019-02-21T21:26:43.873Z,48.87
2019-02-21T21:29:12.979Z,52.27
2019-02-21T21:31:42.105Z,50.43
2019-02-21T21:34:11.212Z,50.70
2019-02-21T21:36:40.348Z,56.77
2019-02-21T21:39:09.847Z,53.03
2019-02-21T21:41:39.063Z,55.20
2019-02-21T21:44:08.254Z,61.47
2019-02-21T21:46:37.375Z,60.47
2019-02-21T21:49:06.532Z,56.13
2019-02-21T21:51:35.631Z,59.20
2019-02-21T21:54:04.801Z,58.40
2019-02-21T21:56:33.924Z,61.97
2019-02-21T21:59:03.084Z,62.17
2019-02-21T22:01:32.242Z,58.90
2019-02-21T22:04:01.347Z,64.37
2019-02-21T22:06:30.511Z,64.80
2019-02-21T22:09:04.644Z,64.10
2019-02-21T22:11:31.244Z,65.13
2019-02-21T22:14:00.681Z,66.27
2019-02-21T22:16:29.832Z,64.00
2019-02-21T22:18:58.940Z,72.03
2019-02-21T22:21:28.295Z,66.73
2019-02-21T22:23:57.452Z,69.57
2019-02-21T22:26:26.601Z,69.23
2019-02-21T22:28:55.724Z,74.57
2019-02-21T22:31:24.883Z,69.30
2019-02-21T22:33:54.180Z,74.33
2019-02-21T22:36:23.336Z,73.40
2019-02-21T22:38:52.447Z,71.43
2019-02-21T22:41:21.599Z,67.83
2019-02-21T22:43:50.718Z,70.10
2019-02-21T22:46:19.854Z,73.93
2019-02-21T22:48:49.145Z,72.97
2019-02-21T22:51:18.351Z,73.23
2019-02-21T22:53:47.446Z,71.50
2019-02-21T22:56:16.606Z,75.23
2019-02-21T22:58:45.802Z,73.33
2019-02-21T23:01:42.386Z,74.47
2019-02-21T23:04:48.605Z,80.10
2019-02-21T23:08:04.810Z,82.17
2019-02-21T23:10:33.943Z,84.80
2019-02-21T23:13:03.227Z,81.23
2019-02-21T23:15:32.358Z,84.30
2019-02-21T23:18:01.646Z,82.20
2019-02-21T23:20:30.756Z,86.27
2019-02-21T23:22:59.897Z,89.80
2019-02-21T23:25:29.024Z,87.10
2019-02-21T23:27:58.367Z,87.40
2019-02-21T23:30:27.475Z,84.17
2019-02-21T23:32:56.661Z,82.57
2019-02-21T23:35:25.789Z,80.23
2019-02-21T23:37:55.268Z,85.77
2019-02-21T23:40:24.396Z,85.73
2019-02-21T23:43:20.581Z,79.60
2019-02-21T23:45:49.704Z,78.53
2019-02-21T23:48:18.913Z,82.47
2019-02-21T23:50:48.023Z,82.00
2019-02-21T23:53:17.173Z,77.67
2019-02-21T23:55:46.285Z,78.63
2019-02-21T23:58:15.501Z,81.10
